Time;durP1;ratioP1;P1;durP2;ratioP2;P2;SDS_P1;SDS_P2;PMS_P1;PMS_P2;Temp;Humidity;BMP_temperature;BMP_pressure;BME280_temperature;BME280_humidity;BME280_pressure;Samples;Min_cycle;Max_cycle;Signal;HPM_P1;HPM_P2
2021/03/03 00:00:39;;;;;;;13.95;10.85;;;;;;;18.26;19.53;95764.94;5055052;28;20048;-50
2021/03/03 00:03:06;;;;;;;15.32;11.63;;;;;;;18.75;18.93;95760.59;5036951;28;20437;-50
2021/03/03 00:05:34;;;;;;;13.15;10.23;;;;;;;18.72;19.03;95755.88;5036772;28;20064;-48
2021/03/03 00:08:01;;;;;;;13.35;11.00;;;;;;;18.93;18.82;95762.22;5036389;28;20349;-51
2021/03/03 00:10:28;;;;;;;13.32;9.95;;;;;;;18.80;18.99;95773.72;5036783;28;20068;-59
2021/03/03 00:12:55;;;;;;;12.52;10.25;;;;;;;19.08;18.72;95769.00;5036498;28;20060;-60
2021/03/03 00:15:22;;;;;;;14.13;10.40;;;;;;;18.79;19.21;95766.84;5036353;28;20049;-52
2021/03/03 00:17:49;;;;;;;12.68;10.18;;;;;;;19.05;18.91;95765.09;5036248;28;20049;-51
2021/03/03 00:20:16;;;;;;;12.75;10.07;;;;;;;19.05;18.62;95764.31;5056558;28;20045;-51
2021/03/03 00:22:44;;;;;;;12.75;9.95;;;;;;;18.91;19.12;95763.63;5056502;28;20463;-48
2021/03/03 00:25:11;;;;;;;11.38;10.07;;;;;;;18.91;19.14;95763.63;5056388;28;20340;-50
2021/03/03 00:27:38;;;;;;;11.52;9.63;;;;;;;18.79;19.08;95761.53;5056393;28;20045;-48
2021/03/03 00:30:06;;;;;;;12.20;9.95;;;;;;;19.09;18.93;95759.97;5047210;28;20048;-54
2021/03/03 00:32:33;;;;;;;15.15;10.63;;;;;;;18.74;19.33;95759.03;5036109;28;20463;-57
2021/03/03 00:35:00;;;;;;;12.63;10.82;;;;;;;18.80;19.33;95763.13;5035976;28;20052;-48
2021/03/03 00:37:28;;;;;;;11.95;9.98;;;;;;;18.53;19.60;95763.25;5035866;28;20049;-49
2021/03/03 00:39:55;;;;;;;12.35;10.25;;;;;;;18.72;19.51;95766.47;5035693;28;20345;-48
2021/03/03 00:42:23;;;;;;;13.48;10.02;;;;;;;18.43;19.81;95754.44;5035909;28;20046;-48
2021/03/03 00:44:50;;;;;;;12.77;10.20;;;;;;;18.33;19.97;95754.69;5033969;28;20045;-50
2021/03/03 00:47:17;;;;;;;12.98;10.43;;;;;;;18.26;19.91;95757.00;5035992;28;20049;-51
2021/03/03 00:49:45;;;;;;;13.00;10.45;;;;;;;18.44;19.81;95748.06;5034606;28;20053;-47
2021/03/03 00:52:14;;;;;;;12.65;9.32;;;;;;;18.76;19.50;95754.22;5035677;28;20448;-49
2021/03/03 00:54:43;;;;;;;13.38;10.20;;;;;;;18.52;19.84;95743.13;5034577;28;20060;-53
2021/03/03 00:57:11;;;;;;;12.00;10.13;;;;;;;18.84;19.38;95748.16;5034090;28;20333;-49
2021/03/03 00:59:38;;;;;;;14.07;10.27;;;;;;;18.69;19.47;95754.63;5038461;28;20049;-50
2021/03/03 01:02:05;;;;;;;12.55;10.23;;;;;;;18.70;19.55;95752.75;5055502;28;20041;-50
2021/03/03 01:04:33;;;;;;;11.40;9.75;;;;;;;18.33;20.16;95760.00;5037761;28;20055;-48
2021/03/03 01:07:00;;;;;;;13.13;9.80;;;;;;;18.66;19.69;95751.81;5055077;28;20049;-50
2021/03/03 01:09:27;;;;;;;14.18;9.75;;;;;;;18.30;19.99;95749.22;5043304;28;20076;-48
2021/03/03 01:11:56;;;;;;;14.02;10.38;;;;;;;18.65;19.51;95748.38;5034972;28;20049;-54
2021/03/03 01:14:24;;;;;;;12.27;9.73;;;;;;;18.72;19.40;95743.41;5034313;28;20048;-50
2021/03/03 01:16:53;;;;;;;13.23;9.43;;;;;;;18.71;19.48;95746.38;5034423;28;20391;-57
2021/03/03 01:19:30;;;;;;;12.10;9.48;;;;;;;18.65;19.36;95740.44;5035213;28;20363;-50
2021/03/03 01:21:57;;;;;;;12.27;9.48;;;;;;;18.72;19.48;95747.94;5035358;28;20053;-52
2021/03/03 01:24:24;;;;;;;13.30;10.18;;;;;;;18.65;19.67;95750.25;5035247;28;20483;-49
2021/03/03 01:26:51;;;;;;;12.88;9.75;;;;;;;18.69;19.72;95748.53;5035320;28;20053;-53
2021/03/03 01:29:19;;;;;;;12.38;9.98;;;;;;;18.58;19.83;95744.56;5034784;28;20452;-48
2021/03/03 01:31:46;;;;;;;12.73;10.15;;;;;;;18.62;19.73;95745.53;5034146;28;20124;-51
2021/03/03 01:34:13;;;;;;;11.38;9.80;;;;;;;18.46;19.90;95745.88;5035294;28;20049;-50
2021/03/03 01:36:40;;;;;;;16.20;10.00;;;;;;;18.62;19.73;95745.53;5034877;28;20056;-55
2021/03/03 01:39:07;;;;;;;12.30;9.95;;;;;;;18.35;20.14;95739.28;5034933;28;20055;-50
2021/03/03 01:41:34;;;;;;;11.82;9.43;;;;;;;18.46;20.13;95745.09;5035237;28;20038;-56
2021/03/03 01:44:01;;;;;;;13.80;9.93;;;;;;;18.32;20.13;95753.13;5035186;28;20070;-59
2021/03/03 01:46:29;;;;;;;13.63;10.63;;;;;;;18.15;20.27;95742.41;5033925;28;20053;-48
2021/03/03 01:48:56;;;;;;;13.32;10.50;;;;;;;18.57;19.87;95748.31;5034808;28;20045;-48
2021/03/03 01:51:23;;;;;;;13.95;10.45;;;;;;;18.18;20.34;95741.81;5035006;28;20368;-49
2021/03/03 01:53:52;;;;;;;14.32;10.63;;;;;;;18.04;20.60;95749.03;5035065;28;20042;-50
2021/03/03 01:56:19;;;;;;;13.63;10.98;;;;;;;18.09;20.63;95748.91;5033999;28;20048;-50
2021/03/03 01:58:46;;;;;;;14.15;10.48;;;;;;;18.24;20.11;95745.16;5034743;28;20049;-52
2021/03/03 02:01:14;;;;;;;14.00;10.88;;;;;;;18.08;20.27;95753.44;5052147;28;20360;-58
2021/03/03 02:03:41;;;;;;;14.10;10.70;;;;;;;18.00;20.32;95748.84;5054262;28;20040;-53
2021/03/03 02:06:14;;;;;;;14.30;11.10;;;;;;;17.98;20.61;95751.03;5053051;28;20044;-49
2021/03/03 02:08:48;;;;;;;14.18;10.98;;;;;;;17.86;20.76;95737.53;5050278;28;20060;-52
2021/03/03 02:11:18;;;;;;;13.23;9.98;;;;;;;18.10;20.23;95742.53;5033240;28;20811;-52
2021/03/03 02:14:13;;;;;;;13.05;10.52;;;;;;;18.03;20.46;95744.81;5033265;28;20055;-49
2021/03/03 02:16:40;;;;;;;15.15;10.63;;;;;;;18.02;20.56;95746.69;5030384;28;20080;-48
2021/03/03 02:19:15;;;;;;;13.52;10.57;;;;;;;17.98;20.54;95752.88;5032881;28;20042;-57
2021/03/03 02:21:48;;;;;;;12.88;10.20;;;;;;;17.91;20.57;95752.50;5034620;28;20360;-54
2021/03/03 02:24:26;;;;;;;13.68;10.00;;;;;;;18.17;20.32;95756.13;5037518;28;20447;-52
2021/03/03 02:26:54;;;;;;;14.15;11.18;;;;;;;17.91;20.59;95757.78;5038592;28;20053;-54
2021/03/03 02:29:25;;;;;;;15.02;10.13;;;;;;;17.78;20.80;95765.47;5038941;28;20037;-48
2021/03/03 02:31:53;;;;;;;19.50;11.60;;;;;;;17.78;20.88;95762.81;5058432;28;20048;-51
2021/03/03 02:34:23;;;;;;;17.00;11.10;;;;;;;17.62;21.04;95764.19;5057383;28;20067;-48
2021/03/03 02:36:51;;;;;;;16.75;11.18;;;;;;;17.69;20.85;95767.22;5057122;28;20052;-51
2021/03/03 02:39:22;;;;;;;13.07;10.55;;;;;;;17.69;20.90;95769.88;5048994;28;20052;-50
2021/03/03 02:41:50;;;;;;;14.90;11.32;;;;;;;17.56;20.97;95766.16;5038271;28;20056;-53
2021/03/03 02:44:17;;;;;;;16.63;11.60;;;;;;;17.48;21.18;95776.66;5036703;28;20052;-48
2021/03/03 02:46:45;;;;;;;17.00;11.45;;;;;;;17.38;21.37;95776.84;5038002;28;20052;-50
2021/03/03 02:49:17;;;;;;;17.33;11.35;;;;;;;17.61;21.00;95780.34;5037732;28;20470;-51
2021/03/03 02:51:44;;;;;;;13.20;11.05;;;;;;;17.26;21.62;95780.78;5036902;28;20057;-50
2021/03/03 02:54:13;;;;;;;15.70;11.93;;;;;;;17.32;21.36;95778.03;5038060;28;20058;-51
2021/03/03 02:56:40;;;;;;;15.48;11.10;;;;;;;17.50;21.18;95779.78;5037869;28;20437;-48
2021/03/03 02:59:23;;;;;;;15.77;11.68;;;;;;;17.45;21.61;95777.25;5037489;28;20045;-49
2021/03/03 03:01:53;;;;;;;15.45;11.50;;;;;;;17.33;21.84;95774.31;5057840;28;20041;-48
2021/03/03 03:04:21;;;;;;;15.38;11.57;;;;;;;17.47;21.49;95773.22;5057611;28;20059;-48
2021/03/03 03:06:49;;;;;;;16.17;12.30;;;;;;;17.28;21.63;95764.63;5056509;28;20060;-49
2021/03/03 03:09:18;;;;;;;17.10;12.85;;;;;;;17.14;21.86;95775.16;5049791;28;20049;-48
2021/03/03 03:11:51;;;;;;;16.80;12.73;;;;;;;17.35;22.03;95766.84;5036106;28;20045;-50
2021/03/03 03:14:27;;;;;;;17.25;13.15;;;;;;;17.46;21.83;95781.47;5036883;28;20049;-47
2021/03/03 03:16:59;;;;;;;17.52;12.48;;;;;;;17.33;21.99;95774.31;5036546;28;20476;-50
2021/03/03 03:19:37;;;;;;;17.85;12.82;;;;;;;17.45;22.07;95778.03;5037193;28;20049;-51
2021/03/03 03:22:07;;;;;;;20.98;14.40;;;;;;;17.30;22.21;95769.59;5037786;28;20046;-50
2021/03/03 03:24:35;;;;;;;17.20;13.25;;;;;;;17.54;21.94;95775.47;5036483;28;20060;-50
2021/03/03 03:27:03;;;;;;;19.23;13.55;;;;;;;17.37;22.13;95791.13;5036090;28;20333;-50
2021/03/03 03:29:32;;;;;;;16.88;12.75;;;;;;;17.17;22.15;95787.00;5039108;28;20045;-47
2021/03/03 03:31:59;;;;;;;17.10;12.50;;;;;;;17.15;22.25;95789.16;5057169;28;20056;-50
2021/03/03 03:34:26;;;;;;;17.48;12.95;;;;;;;17.30;22.10;95802.09;5056404;28;20473;-50
2021/03/03 03:36:53;;;;;;;17.25;13.15;;;;;;;16.92;22.53;95798.84;5057185;28;20052;-55
2021/03/03 03:39:20;;;;;;;18.10;13.30;;;;;;;17.22;22.18;95800.16;5050409;28;20479;-48
2021/03/03 03:41:48;;;;;;;20.10;13.65;;;;;;;17.03;22.44;95796.81;5037116;28;20046;-51
2021/03/03 03:44:16;;;;;;;17.40;13.32;;;;;;;17.03;22.45;95794.94;5035057;28;20045;-49
2021/03/03 03:46:44;;;;;;;18.00;13.45;;;;;;;16.61;22.74;95801.97;5036869;28;20045;-50
2021/03/03 03:49:11;;;;;;;21.27;12.98;;;;;;;16.34;23.07;95796.59;5036430;28;20049;-48
2021/03/03 03:51:40;;;;;;;16.80;13.43;;;;;;;16.26;23.19;95799.88;5035974;28;20052;-50
2021/03/03 03:54:08;;;;;;;19.95;13.38;;;;;;;16.16;23.40;95803.47;5036829;28;20057;-48
2021/03/03 03:56:36;;;;;;;19.08;12.70;;;;;;;16.23;23.19;95803.88;5036704;28;20061;-48
2021/03/03 03:59:03;;;;;;;20.52;13.05;;;;;;;16.12;23.41;95796.38;5035477;28;20478;-50
2021/03/03 04:01:30;;;;;;;18.33;13.43;;;;;;;15.81;23.60;95796.81;5056268;28;20057;-48
2021/03/03 04:03:58;;;;;;;21.60;13.68;;;;;;;15.68;23.90;95794.88;5056635;28;20044;-47
2021/03/03 04:06:25;;;;;;;20.13;14.35;;;;;;;15.91;23.66;95791.41;5056428;28;20048;-49
2021/03/03 04:08:52;;;;;;;20.60;13.63;;;;;;;16.11;23.55;95786.91;5054722;28;20056;-48
2021/03/03 04:11:19;;;;;;;18.17;14.52;;;;;;;16.51;23.42;95794.22;5036516;28;20053;-64
2021/03/03 04:13:46;;;;;;;18.35;14.23;;;;;;;16.73;23.49;95787.56;5036599;28;20050;-55
2021/03/03 04:16:13;;;;;;;17.77;14.10;;;;;;;16.93;23.10;95792.50;5036429;28;20053;-50
2021/03/03 04:18:40;;;;;;;18.02;13.63;;;;;;;16.96;22.80;95797.19;5036248;28;20456;-48
2021/03/03 04:21:07;;;;;;;18.30;13.63;;;;;;;16.36;23.23;95805.00;5055761;28;20056;-48
2021/03/03 04:23:34;;;;;;;19.92;13.57;;;;;;;16.67;23.34;95805.34;5056201;28;20360;-49
2021/03/03 04:26:02;;;;;;;23.08;15.77;;;;;;;16.67;22.90;95801.94;5055641;28;20060;-48
2021/03/03 04:28:29;;;;;;;23.95;14.60;;;;;;;16.73;22.88;95803.41;5055968;28;20049;-51
2021/03/03 04:30:56;;;;;;;23.50;15.27;;;;;;;16.80;22.88;95798.53;5040266;28;20049;-50
2021/03/03 04:33:23;;;;;;;21.23;14.88;;;;;;;16.49;23.19;95804.28;5035982;28;20056;-48
2021/03/03 04:35:54;;;;;;;20.33;14.75;;;;;;;16.51;23.48;95807.41;5035960;28;20385;-49
2021/03/03 04:38:21;;;;;;;20.60;15.13;;;;;;;16.31;23.91;95807.72;5036010;28;20053;-49
2021/03/03 04:40:49;;;;;;;18.13;14.07;;;;;;;16.69;23.68;95813.75;5035607;28;20079;-49
2021/03/03 04:43:16;;;;;;;20.40;13.93;;;;;;;16.35;23.89;95813.97;5035928;28;20045;-49
2021/03/03 04:45:43;;;;;;;21.10;14.60;;;;;;;16.13;23.64;95819.84;5034971;28;20052;-51
2021/03/03 04:48:10;;;;;;;21.60;15.05;;;;;;;16.35;23.95;95813.97;5035826;28;20049;-49
2021/03/03 04:50:38;;;;;;;21.90;14.38;;;;;;;16.54;23.33;95813.97;5035471;28;20049;-47
2021/03/03 04:53:05;;;;;;;22.35;14.68;;;;;;;16.64;23.58;95819.84;5035719;28;20049;-49
2021/03/03 04:55:32;;;;;;;21.05;15.50;;;;;;;16.72;23.51;95828.25;5035656;28;20049;-50
2021/03/03 04:57:59;;;;;;;20.42;14.82;;;;;;;16.46;23.65;95830.47;5040175;28;20055;-50
2021/03/03 05:00:26;;;;;;;19.65;14.82;;;;;;;16.25;23.94;95835.25;5043243;28;20367;-47
2021/03/03 05:02:54;;;;;;;21.55;16.30;;;;;;;16.15;24.12;95835.41;5054328;28;20048;-48
2021/03/03 05:05:21;;;;;;;21.27;15.15;;;;;;;16.12;24.36;95828.81;5045176;28;20443;-48
2021/03/03 05:07:48;;;;;;;20.63;15.27;;;;;;;16.21;24.27;95827.13;5044145;28;20044;-47
2021/03/03 05:10:15;;;;;;;20.80;16.10;;;;;;;16.08;24.63;95829.69;5042032;28;20049;-49
2021/03/03 05:12:42;;;;;;;19.75;16.17;;;;;;;16.36;24.25;95831.38;5052175;28;20045;-52
2021/03/03 05:15:10;;;;;;;23.45;16.73;;;;;;;16.56;24.08;95833.72;5054201;28;20470;-49
2021/03/03 05:17:37;;;;;;;22.00;15.90;;;;;;;16.64;24.03;95832.28;5055298;28;20056;-48
2021/03/03 05:20:06;;;;;;;20.45;15.85;;;;;;;16.75;23.83;95828.44;5045659;28;20049;-47
2021/03/03 05:22:33;;;;;;;24.90;17.73;;;;;;;17.15;23.67;95837.50;5035280;28;20376;-49
2021/03/03 05:25:01;;;;;;;34.35;22.27;;;;;;;16.72;24.16;95842.22;5037922;28;20056;-48
2021/03/03 05:27:28;;;;;;;33.30;23.00;;;;;;;22.06;17.86;95839.56;5044084;28;20053;-51
2021/03/03 05:29:55;;;;;;;26.00;20.55;;;;;;;23.49;16.66;95839.22;5040698;28;20048;-53
2021/03/03 05:32:22;;;;;;;28.67;22.77;;;;;;;24.09;16.21;95834.97;5035694;28;20053;-54
2021/03/03 05:34:49;;;;;;;25.63;21.77;;;;;;;24.40;15.86;95829.03;5034773;28;20364;-51
2021/03/03 05:37:16;;;;;;;26.42;20.98;;;;;;;24.69;15.61;95830.59;5037454;28;20333;-58
2021/03/03 05:39:44;;;;;;;23.95;20.23;;;;;;;24.59;15.62;95832.66;5034825;28;20046;-57
2021/03/03 05:42:11;;;;;;;27.15;19.67;;;;;;;23.28;16.78;95833.97;5034860;28;20049;-52
2021/03/03 05:44:38;;;;;;;33.50;20.63;;;;;;;20.89;19.21;95838.28;5034944;28;20041;-54
2021/03/03 05:47:06;;;;;;;25.02;20.27;;;;;;;20.94;19.57;95837.31;5035214;28;20049;-54
2021/03/03 05:49:35;;;;;;;21.67;17.50;;;;;;;20.70;19.83;95843.13;5034517;28;20387;-55
2021/03/03 05:52:02;;;;;;;19.58;17.00;;;;;;;20.99;19.88;95837.16;5034058;28;20064;-54
2021/03/03 05:54:29;;;;;;;21.55;17.60;;;;;;;20.82;20.14;95830.00;5033825;28;20049;-52
2021/03/03 05:56:57;;;;;;;23.10;16.23;;;;;;;19.96;21.44;95825.44;5035035;28;20321;-57
2021/03/03 05:59:44;;;;;;;21.10;16.10;;;;;;;19.59;21.62;95831.28;5046374;28;20341;-54
2021/03/03 06:02:11;;;;;;;19.00;15.30;;;;;;;19.60;21.98;95823.03;5037998;28;20378;-56
2021/03/03 06:04:38;;;;;;;19.23;16.00;;;;;;;19.56;21.80;95822.09;5038685;28;20329;-54
2021/03/03 06:07:06;;;;;;;19.05;15.27;;;;;;;19.58;21.96;95827.88;5047794;28;20363;-55
2021/03/03 06:09:33;;;;;;;23.70;15.48;;;;;;;19.83;21.59;95830.88;5058622;28;20057;-56
2021/03/03 06:12:00;;;;;;;20.20;15.93;;;;;;;19.96;21.34;95829.97;5057704;28;20048;-55
2021/03/03 06:14:28;;;;;;;20.10;15.80;;;;;;;19.73;21.74;95825.84;5058398;28;20045;-54
2021/03/03 06:16:56;;;;;;;18.05;15.70;;;;;;;20.04;21.22;95826.56;5058626;28;20506;-55
2021/03/03 06:19:25;;;;;;;20.92;16.73;;;;;;;19.94;21.71;95826.84;5057144;28;20059;-55
2021/03/03 06:21:52;;;;;;;19.85;16.23;;;;;;;19.97;21.04;95828.88;5058547;28;20064;-57
2021/03/03 06:24:19;;;;;;;21.38;16.80;;;;;;;20.03;21.26;95835.59;5058314;28;20351;-52
2021/03/03 06:27:01;;;;;;;26.88;17.75;;;;;;;20.20;21.29;95840.16;5058326;28;20079;-55
2021/03/03 06:29:29;;;;;;;18.27;15.70;;;;;;;20.13;21.60;95835.31;5055394;28;20053;-58
2021/03/03 06:32:02;;;;;;;22.88;18.35;;;;;;;20.51;21.31;95829.41;5038381;28;20068;-56
2021/03/03 06:34:29;;;;;;;24.35;18.85;;;;;;;20.78;20.68;95839.69;5051763;28;20491;-51
2021/03/03 06:36:56;;;;;;;21.52;17.80;;;;;;;20.60;20.75;95838.16;5038266;28;20045;-58
2021/03/03 06:39:23;;;;;;;26.77;19.05;;;;;;;20.99;20.85;95831.06;5037786;28;20041;-50
2021/03/03 06:41:56;;;;;;;22.70;15.65;;;;;;;20.69;20.74;95836.28;5038335;28;20060;-53
2021/03/03 06:44:23;;;;;;;;;;;;;;;21.47;20.21;95828.09;5038557;28;20392;-57
2021/03/03 06:47:07;;;;;;;18.52;15.20;;;;;;;21.40;20.15;95833.16;5038125;28;19917;-54
2021/03/03 06:49:34;;;;;;;20.48;15.52;;;;;;;21.43;20.06;95822.66;5037740;28;20041;-56
2021/03/03 06:52:01;;;;;;;18.83;14.90;;;;;;;21.79;20.03;95824.03;5037967;28;20060;-54
2021/03/03 06:54:29;;;;;;;17.85;15.38;;;;;;;21.87;19.78;95836.53;5037719;28;20058;-55
2021/03/03 06:56:57;;;;;;;16.33;14.40;;;;;;;21.67;19.86;95834.59;5038016;28;20053;-53
2021/03/03 06:59:30;;;;;;;18.25;15.50;;;;;;;21.91;20.25;95831.34;5037207;28;20046;-56
2021/03/03 07:02:11;;;;;;;17.42;14.57;;;;;;;22.41;19.92;95828.66;5037860;28;20049;-55
2021/03/03 07:04:40;;;;;;;19.33;15.57;;;;;;;22.26;19.36;95837.22;5037959;28;20045;-54
2021/03/03 07:07:17;;;;;;;18.00;15.45;;;;;;;22.37;19.00;95833.06;5038228;28;20049;-55
2021/03/03 07:09:47;;;;;;;20.40;15.32;;;;;;;22.27;19.54;95836.13;5036531;28;20050;-54
2021/03/03 07:12:21;;;;;;;19.20;15.35;;;;;;;22.48;19.10;95828.91;5038016;28;20053;-57
2021/03/03 07:15:01;;;;;;;19.05;15.18;;;;;;;22.65;18.60;95826.09;5036354;28;20474;-56
2021/03/03 07:17:36;;;;;;;19.45;15.23;;;;;;;22.71;18.81;95827.44;5037478;28;20049;-54
2021/03/03 07:20:08;;;;;;;19.05;15.90;;;;;;;22.64;18.91;95837.88;5037263;28;20056;-57
2021/03/03 07:22:36;;;;;;;;;;;;;;;22.81;18.68;95830.81;5037765;28;20367;-54
2021/03/03 07:25:09;;;;;;;17.75;15.05;;;;;;;22.95;18.56;95834.78;5037308;28;19913;-54
2021/03/03 07:27:37;;;;;;;;;;;;;;;22.86;18.89;95819.97;5037876;28;20337;-53
2021/03/03 07:30:10;;;;;;;16.55;14.80;;;;;;;23.09;18.30;95821.13;5044800;28;19920;-56
2021/03/03 07:32:38;;;;;;;18.13;15.07;;;;;;;23.31;18.37;95826.06;5057076;28;20045;-54
2021/03/03 07:35:07;;;;;;;17.38;14.85;;;;;;;23.41;18.93;95824.06;5057041;28;20049;-54
2021/03/03 07:37:36;;;;;;;18.33;15.43;;;;;;;23.31;18.37;95818.06;5037018;28;20048;-55
2021/03/03 07:40:07;;;;;;;22.23;16.23;;;;;;;23.58;18.01;95811.31;5036864;28;20447;-55
2021/03/03 07:42:36;;;;;;;19.77;15.37;;;;;;;23.23;18.46;95808.28;5037024;28;20052;-55
2021/03/03 07:45:05;;;;;;;21.13;16.13;;;;;;;23.56;17.88;95807.44;5036991;28;20052;-55
2021/03/03 07:47:36;;;;;;;18.05;14.40;;;;;;;23.82;17.90;95807.09;5037046;28;20376;-55
2021/03/03 07:50:09;;;;;;;17.50;15.65;;;;;;;23.95;18.07;95812.09;5036741;28;20068;-59
2021/03/03 07:52:47;;;;;;;18.85;15.88;;;;;;;23.84;17.68;95802.19;5036811;28;20045;-54
2021/03/03 07:55:15;;;;;;;17.83;15.40;;;;;;;23.96;17.94;95802.19;5034669;28;20057;-54
2021/03/03 07:57:49;;;;;;;18.40;15.20;;;;;;;24.31;17.45;95799.78;5036908;28;20364;-55
2021/03/03 08:00:33;;;;;;;17.08;15.27;;;;;;;24.20;17.79;95810.16;5036513;28;20057;-57
2021/03/03 08:03:00;;;;;;;16.90;15.05;;;;;;;24.15;17.96;95806.91;5036746;28;20515;-58
2021/03/03 08:05:29;;;;;;;17.50;15.40;;;;;;;24.35;17.87;95800.66;5036245;28;20049;-57
2021/03/03 08:08:17;;;;;;;17.23;14.95;;;;;;;24.26;17.61;95805.34;5036740;28;20057;-55
2021/03/03 08:10:57;;;;;;;17.10;14.55;;;;;;;24.14;17.64;95810.69;5036792;28;20057;-54
2021/03/03 08:13:30;;;;;;;18.35;16.20;;;;;;;24.50;17.51;95812.53;5036487;28;20049;-57
2021/03/03 08:15:59;;;;;;;20.48;18.08;;;;;;;24.62;17.37;95798.31;5035968;28;20049;-55
2021/03/03 08:18:29;;;;;;;23.33;20.58;;;;;;;24.83;17.09;95799.66;5036346;28;20360;-54
2021/03/03 08:21:01;;;;;;;17.55;15.57;;;;;;;24.95;16.73;95800.72;5036279;28;20371;-54
2021/03/03 08:23:34;;;;;;;17.25;14.88;;;;;;;24.80;17.37;95800.34;5036210;28;20117;-53
2021/03/03 08:26:31;;;;;;;17.77;14.85;;;;;;;25.13;16.67;95801.97;5035856;28;20128;-55
2021/03/03 08:29:21;;;;;;;16.48;14.77;;;;;;;25.24;16.85;95805.69;5036152;28;20045;-54
2021/03/03 08:31:49;;;;;;;17.20;14.02;;;;;;;24.94;17.21;95797.25;5036204;28;20337;-55
2021/03/03 08:34:16;;;;;;;18.23;14.32;;;;;;;25.13;17.27;95797.41;5035884;28;20064;-56
2021/03/03 08:36:48;;;;;;;17.13;14.75;;;;;;;25.21;17.09;95801.81;5035691;28;20053;-54
2021/03/03 08:39:15;;;;;;;16.50;14.70;;;;;;;25.21;17.11;95791.09;5035980;28;20057;-57
2021/03/03 08:41:43;;;;;;;16.77;15.00;;;;;;;25.10;16.98;95792.75;5036066;28;20050;-55
2021/03/03 08:44:15;;;;;;;16.95;14.65;;;;;;;25.35;16.77;95792.59;5035851;28;20045;-56
2021/03/03 08:46:42;;;;;;;16.38;14.55;;;;;;;25.51;16.67;95779.97;5035122;28;20038;-55
2021/03/03 08:49:09;;;;;;;16.98;14.13;;;;;;;25.35;16.92;95788.00;5035743;28;20045;-56
2021/03/03 08:51:43;;;;;;;19.08;14.95;;;;;;;25.80;16.39;95779.53;5035800;28;20049;-54
2021/03/03 08:54:15;;;;;;;16.80;14.05;;;;;;;25.67;16.48;95783.41;5035598;28;20045;-54
2021/03/03 08:56:44;;;;;;;;;;;;;;;26.03;16.15;95774.28;5035992;28;20364;-56
2021/03/03 08:59:24;;;;;;;25.30;15.25;;;;;;;26.05;16.28;95777.38;5036035;28;20391;-56
2021/03/03 09:01:57;;;;;;;15.60;14.00;;;;;;;25.86;16.61;95773.88;5055569;28;20056;-53
2021/03/03 09:04:26;;;;;;;15.57;13.60;;;;;;;25.80;16.25;95771.47;5055335;28;20040;-53
2021/03/03 09:06:56;;;;;;;16.30;13.80;;;;;;;25.96;16.57;95778.69;5039507;28;20045;-54
2021/03/03 09:09:24;;;;;;;16.38;14.30;;;;;;;25.73;16.97;95776.66;5035575;28;20053;-57
2021/03/03 09:12:02;;;;;;;18.83;14.35;;;;;;;26.25;16.13;95775.47;5035648;28;20053;-56
2021/03/03 09:14:29;;;;;;;;;;;;;;;26.06;16.16;95778.94;5035624;28;20054;-55
2021/03/03 09:17:01;;;;;;;15.93;14.30;;;;;;;25.80;16.19;95776.84;5035160;28;19913;-55
2021/03/03 09:19:29;;;;;;;;;;;;;;;26.08;15.72;95778.56;5035869;28;20045;-56
2021/03/03 09:21:56;;;;;;;14.95;12.43;;;;;;;26.37;15.41;95775.38;5035387;28;19917;-55
2021/03/03 09:24:24;;;;;;;17.58;13.00;;;;;;;26.37;15.37;95780.72;5035279;28;20042;-55
2021/03/03 09:27:05;;;;;;;14.93;13.18;;;;;;;26.54;15.26;95770.69;5034882;28;20049;-55
2021/03/03 09:29:34;;;;;;;45.30;37.30;;;;;;;26.46;15.30;95774.38;5035025;28;20124;-59
2021/03/03 09:32:18;;;;;;;26.13;21.23;;;;;;;26.36;15.50;95776.50;5034763;28;20060;-56
2021/03/03 09:34:53;;;;;;;28.17;14.88;;;;;;;26.81;15.29;95780.41;5034927;28;20045;-55
2021/03/03 09:37:21;;;;;;;15.68;13.93;;;;;;;26.79;15.37;95766.56;5034096;28;20075;-56
2021/03/03 09:39:57;;;;;;;15.73;13.30;;;;;;;26.62;15.77;95769.72;5034978;28;20440;-55
2021/03/03 09:42:25;;;;;;;16.58;13.02;;;;;;;26.71;15.74;95759.53;5036655;28;20048;-54
2021/03/03 09:44:54;;;;;;;16.58;13.15;;;;;;;27.06;15.21;95763.97;5054221;28;20037;-55
2021/03/03 09:47:22;;;;;;;14.07;12.65;;;;;;;26.99;15.12;95760.06;5053930;28;20371;-54
2021/03/03 09:49:50;;;;;;;15.02;12.40;;;;;;;27.37;14.47;95757.59;5053832;28;20040;-58
2021/03/03 09:52:18;;;;;;;13.77;12.30;;;;;;;27.06;14.77;95753.25;5052027;28;20060;-56
2021/03/03 09:54:45;;;;;;;14.35;12.55;;;;;;;26.98;15.14;95755.78;5034578;28;20054;-53
2021/03/03 09:57:14;;;;;;;14.60;12.52;;;;;;;26.93;15.34;95750.72;5034886;28;20053;-55
2021/03/03 09:59:43;;;;;;;15.90;12.20;;;;;;;27.02;15.49;95743.22;5034992;28;20486;-56
2021/03/03 10:02:17;;;;;;;12.98;11.57;;;;;;;27.47;14.00;95744.31;5033532;28;20053;-56
2021/03/03 10:04:45;;;;;;;15.55;11.57;;;;;;;27.45;14.56;95743.91;5034791;28;20045;-57
2021/03/03 10:07:19;;;;;;;14.98;11.57;;;;;;;27.09;14.52;95731.09;5034266;28;20479;-55
2021/03/03 10:09:47;;;;;;;13.13;11.27;;;;;;;27.50;14.26;95729.41;5034076;28;20472;-54
2021/03/03 10:12:16;;;;;;;12.82;10.90;;;;;;;27.86;15.13;95720.75;5034064;28;20046;-53
2021/03/03 10:14:55;;;;;;;16.95;10.98;;;;;;;27.74;13.80;95725.56;5034219;28;20041;-56
2021/03/03 10:17:32;;;;;;;12.63;11.23;;;;;;;28.01;14.39;95721.69;5034696;28;20057;-55
2021/03/03 10:20:00;;;;;;;13.02;10.80;;;;;;;28.06;14.12;95718.66;5034988;28;20045;-56
2021/03/03 10:22:27;;;;;;;12.13;10.75;;;;;;;27.58;14.23;95710.34;5034248;28;20447;-54
2021/03/03 10:25:00;;;;;;;12.10;10.80;;;;;;;27.80;13.61;95711.44;5034691;28;20046;-57
2021/03/03 10:27:34;;;;;;;13.32;11.85;;;;;;;27.80;13.73;95705.28;5034410;28;20053;-57
2021/03/03 10:30:22;;;;;;;14.95;10.48;;;;;;;27.89;14.45;95698.50;5034355;28;20049;-53
2021/03/03 10:32:49;;;;;;;10.82;9.60;;;;;;;28.10;13.32;95692.59;5034194;28;20049;-55
2021/03/03 10:35:16;;;;;;;12.80;10.10;;;;;;;28.05;13.08;95690.25;5034485;28;20049;-55
2021/03/03 10:37:43;;;;;;;24.08;21.48;;;;;;;28.39;13.37;95674.91;5033580;28;20057;-54
2021/03/03 10:40:13;;;;;;;33.58;29.05;;;;;;;28.42;13.41;95681.47;5034534;28;20072;-55
2021/03/03 10:42:40;;;;;;;14.50;11.63;;;;;;;28.91;12.96;95675.03;5034090;28;20046;-54
2021/03/03 10:45:23;;;;;;;15.50;10.32;;;;;;;28.61;12.78;95675.88;5036792;28;20041;-59
2021/03/03 10:47:51;;;;;;;13.60;11.10;;;;;;;28.64;12.50;95664.41;5038046;28;20050;-56
2021/03/03 10:50:20;;;;;;;10.27;8.73;;;;;;;28.53;12.65;95661.59;5037557;28;20057;-55
2021/03/03 10:53:01;;;;;;;12.68;10.52;;;;;;;28.55;12.72;95647.78;5041359;28;20440;-59
2021/03/03 10:55:36;;;;;;;13.13;9.40;;;;;;;28.70;12.77;95646.78;5057594;28;20045;-55
2021/03/03 10:58:11;;;;;;;13.45;9.98;;;;;;;28.66;13.07;95643.28;5057891;28;20451;-55
2021/03/03 11:00:58;;;;;;;11.00;9.80;;;;;;;28.62;12.96;95647.06;5057735;28;20465;-56
2021/03/03 11:03:26;;;;;;;11.77;9.73;;;;;;;28.97;12.71;95641.25;5048409;28;20052;-55
2021/03/03 11:05:57;;;;;;;13.85;11.65;;;;;;;29.05;12.31;95626.69;5037804;28;20041;-54
2021/03/03 11:08:25;;;;;;;97.47;81.80;;;;;;;28.96;12.66;95623.56;5037927;28;20061;-55
2021/03/03 11:11:07;;;;;;;25.75;19.60;;;;;;;29.00;13.38;95627.03;5037635;28;20049;-58
2021/03/03 11:13:36;;;;;;;14.35;11.93;;;;;;;29.07;12.40;95624.38;5036882;28;20072;-55
2021/03/03 11:16:04;;;;;;;12.35;8.93;;;;;;;28.84;12.79;95622.66;5037387;28;20080;-58
2021/03/03 11:18:31;;;;;;;9.95;8.32;;;;;;;29.10;12.58;95615.56;5037188;28;20050;-57
2021/03/03 11:20:59;;;;;;;10.85;8.90;;;;;;;29.09;12.58;95611.31;5037361;28;20053;-55
2021/03/03 11:23:27;;;;;;;10.68;9.27;;;;;;;28.94;12.76;95607.00;5045356;28;20439;-58
2021/03/03 11:25:56;;;;;;;9.15;8.07;;;;;;;29.19;12.35;95599.88;5041478;28;20475;-59
2021/03/03 11:28:26;;;;;;;8.80;7.55;;;;;;;29.42;12.42;95607.69;5037242;28;20048;-57
2021/03/03 11:30:54;;;;;;;8.18;6.93;;;;;;;29.41;11.83;95603.44;5037217;28;20053;-58